VSV702 UAII-ULLI
Flight info
| Callsign | VSV702 |
|---|---|
| Flight time | N/A |
| Altitude | 34000 |
| Route | RUSEK5C RUSEK L139 INKUM L163 SIVKO/K0857F360 L163 BEKAS M56 DENUD T784 ROKUR P164 PINOK N50 GENPA |
| Aircraft | B38M/M-SDE1FGHILORVWXY/HB1 |
Departure
| Time | 2026-04-11 00:32 |
|---|---|
| Airport | Shymkent International Airport (UAII) |
Arrival
| Time | N/A |
|---|---|
| Airport | Pulkovo Airport (ULLI) |
| Time | Latitude | Longitude | Altitude | Speed | Heading |
|---|---|---|---|---|---|
| 2026-04-11 00:18 | 42.36669 | 69.49028 | 1357 ft | 2 kts | 24° |
| 2026-04-11 00:19 | 42.36664 | 69.49025 | 1357 ft | 2 kts | 24° |
| 2026-04-11 00:20 | 42.36646 | 69.49013 | 1359 ft | 3 kts | 24° |
| 2026-04-11 00:20 | 42.36635 | 69.49007 | 1360 ft | 3 kts | 24° |
| 2026-04-11 00:20 | 42.36625 | 69.49001 | 1357 ft | 3 kts | 24° |
| 2026-04-11 00:20 | 42.36611 | 69.48992 | 1358 ft | 3 kts | 19° |
| 2026-04-11 00:21 | 42.36593 | 69.48988 | 1359 ft | 3 kts | 346° |
| 2026-04-11 00:21 | 42.36579 | 69.48999 | 1357 ft | 3 kts | 299° |
| 2026-04-11 00:21 | 42.36573 | 69.49024 | 1358 ft | 3 kts | 281° |
| 2026-04-11 00:21 | 42.36569 | 69.49051 | 1357 ft | 3 kts | 281° |
| 2026-04-11 00:22 | 42.36566 | 69.49070 | 1359 ft | 1 kts | 292° |
| 2026-04-11 00:22 | 42.36565 | 69.49072 | 1359 ft | 2 kts | 292° |
| 2026-04-11 00:24 | 42.36566 | 69.49070 | 1357 ft | 1 kts | 293° |
| 2026-04-11 00:24 | 42.36578 | 69.49032 | 1360 ft | 6 kts | 294° |
| 2026-04-11 00:25 | 42.36598 | 69.48972 | 1357 ft | 7 kts | 294° |
| 2026-04-11 00:25 | 42.36621 | 69.48907 | 1360 ft | 8 kts | 294° |
| 2026-04-11 00:25 | 42.36604 | 69.48839 | 1359 ft | 8 kts | 220° |
| 2026-04-11 00:25 | 42.36550 | 69.48801 | 1359 ft | 9 kts | 204° |
| 2026-04-11 00:26 | 42.36490 | 69.48765 | 1358 ft | 10 kts | 204° |
| 2026-04-11 00:26 | 42.36423 | 69.48727 | 1360 ft | 11 kts | 208° |
| 2026-04-11 00:26 | 42.36403 | 69.48640 | 1357 ft | 11 kts | 286° |
| 2026-04-11 00:26 | 42.36425 | 69.48538 | 1358 ft | 13 kts | 285° |
| 2026-04-11 00:27 | 42.36453 | 69.48403 | 1358 ft | 16 kts | 286° |
| 2026-04-11 00:27 | 42.36484 | 69.48260 | 1358 ft | 16 kts | 286° |
| 2026-04-11 00:27 | 42.36515 | 69.48112 | 1360 ft | 17 kts | 286° |
| 2026-04-11 00:27 | 42.36547 | 69.47960 | 1359 ft | 17 kts | 287° |
| 2026-04-11 00:28 | 42.36581 | 69.47805 | 1362 ft | 17 kts | 286° |
| 2026-04-11 00:28 | 42.36616 | 69.47646 | 1360 ft | 18 kts | 286° |
| 2026-04-11 00:28 | 42.36659 | 69.47446 | 1358 ft | 27 kts | 286° |
| 2026-04-11 00:28 | 42.36715 | 69.47186 | 1359 ft | 30 kts | 287° |
| 2026-04-11 00:29 | 42.36773 | 69.46916 | 1358 ft | 30 kts | 285° |
| 2026-04-11 00:29 | 42.36828 | 69.46657 | 1358 ft | 26 kts | 285° |
| 2026-04-11 00:29 | 42.36866 | 69.46460 | 1361 ft | 16 kts | 269° |
| 2026-04-11 00:29 | 42.36836 | 69.46385 | 1358 ft | 0 kts | 230° |
| 2026-04-11 00:30 | 42.36831 | 69.46381 | 1359 ft | 3 kts | 210° |
| 2026-04-11 00:30 | 42.36780 | 69.46377 | 1360 ft | 12 kts | 168° |
| 2026-04-11 00:30 | 42.36756 | 69.46404 | 1359 ft | 3 kts | 114° |
| 2026-04-11 00:30 | 42.36753 | 69.46415 | 1360 ft | 0 kts | 106° |
| 2026-04-11 00:31 | 42.36692 | 69.46691 | 1357 ft | 69 kts | 106° |
| 2026-04-11 00:31 | 42.36489 | 69.47629 | 1360 ft | 137 kts | 106° |
| 2026-04-11 00:31 | 42.36167 | 69.49071 | 1557 ft | 174 kts | 107° |
| 2026-04-11 00:32 | 42.35788 | 69.50643 | 2354 ft | 173 kts | 107° |
| 2026-04-11 00:32 | 42.35448 | 69.52173 | 3205 ft | 168 kts | 102° |
| 2026-04-11 00:32 | 42.35442 | 69.53742 | 3875 ft | 171 kts | 69° |
| 2026-04-11 00:32 | 42.36172 | 69.54972 | 4648 ft | 172 kts | 34° |
| 2026-04-11 00:33 | 42.37350 | 69.55410 | 5252 ft | 185 kts | 357° |
| 2026-04-11 00:33 | 42.38525 | 69.54738 | 5942 ft | 188 kts | 318° |
| 2026-04-11 00:33 | 42.39199 | 69.53215 | 6572 ft | 193 kts | 288° |
| 2026-04-11 00:33 | 42.39651 | 69.51473 | 7074 ft | 202 kts | 294° |
| 2026-04-11 00:34 | 42.40209 | 69.49664 | 7558 ft | 215 kts | 294° |
| 2026-04-11 00:34 | 42.40814 | 69.47737 | 8028 ft | 229 kts | 295° |
| 2026-04-11 00:34 | 42.41464 | 69.45676 | 8386 ft | 249 kts | 295° |
| 2026-04-11 00:34 | 42.42170 | 69.43430 | 8736 ft | 270 kts | 294° |
| 2026-04-11 00:35 | 42.42904 | 69.41069 | 9359 ft | 283 kts | 294° |
| 2026-04-11 00:35 | 42.43677 | 69.38550 | 10104 ft | 294 kts | 294° |
| 2026-04-11 00:35 | 42.44654 | 69.36106 | 10850 ft | 301 kts | 312° |
| 2026-04-11 00:35 | 42.46268 | 69.34196 | 11372 ft | 316 kts | 323° |
| 2026-04-11 00:36 | 42.46985 | 69.33435 | 11581 ft | 323 kts | 323° |
| 2026-04-11 00:36 | 42.48793 | 69.31494 | 11958 ft | 340 kts | 323° |
| 2026-04-11 00:36 | 42.50699 | 69.29460 | 12236 ft | 358 kts | 322° |
| 2026-04-11 00:36 | 42.52705 | 69.27327 | 12476 ft | 375 kts | 322° |
| 2026-04-11 00:37 | 42.54807 | 69.25095 | 12697 ft | 391 kts | 322° |
| 2026-04-11 00:37 | 42.56988 | 69.22778 | 13024 ft | 402 kts | 322° |
| 2026-04-11 00:37 | 42.59196 | 69.20431 | 13694 ft | 405 kts | 322° |
| 2026-04-11 00:37 | 42.61438 | 69.18045 | 14154 ft | 411 kts | 322° |
| 2026-04-11 00:38 | 42.63695 | 69.15642 | 14760 ft | 413 kts | 322° |
| 2026-04-11 00:38 | 42.65968 | 69.13219 | 15260 ft | 417 kts | 322° |
| 2026-04-11 00:38 | 42.68227 | 69.10809 | 15804 ft | 420 kts | 322° |
| 2026-04-11 00:38 | 42.70536 | 69.08342 | 16324 ft | 423 kts | 322° |
| 2026-04-11 00:39 | 42.72861 | 69.05857 | 16836 ft | 426 kts | 322° |
| 2026-04-11 00:39 | 42.75196 | 69.03359 | 17366 ft | 428 kts | 322° |
| 2026-04-11 00:39 | 42.77458 | 69.00697 | 17862 ft | 432 kts | 318° |
| 2026-04-11 00:39 | 42.79706 | 68.97951 | 18365 ft | 434 kts | 319° |
| 2026-04-11 00:40 | 42.81977 | 68.95199 | 18809 ft | 437 kts | 319° |
| 2026-04-11 00:40 | 42.84231 | 68.92475 | 19245 ft | 439 kts | 319° |
| 2026-04-11 00:40 | 42.86522 | 68.89705 | 19701 ft | 441 kts | 319° |
| 2026-04-11 00:40 | 42.88824 | 68.86922 | 20147 ft | 443 kts | 319° |
| 2026-04-11 00:41 | 42.91138 | 68.84122 | 20579 ft | 445 kts | 318° |
| 2026-04-11 00:41 | 42.93462 | 68.81307 | 21004 ft | 447 kts | 318° |
| 2026-04-11 00:41 | 42.95794 | 68.78481 | 21428 ft | 449 kts | 318° |
| 2026-04-11 00:41 | 42.98135 | 68.75640 | 21850 ft | 451 kts | 318° |
| 2026-04-11 00:42 | 43.00066 | 68.73293 | 22195 ft | 453 kts | 318° |
| 2026-04-11 00:42 | 43.02427 | 68.70422 | 22593 ft | 455 kts | 318° |
| 2026-04-11 00:42 | 43.04801 | 68.67533 | 22991 ft | 458 kts | 318° |
| 2026-04-11 00:42 | 43.07153 | 68.64666 | 23395 ft | 460 kts | 318° |
| 2026-04-11 00:43 | 43.09576 | 68.61711 | 23766 ft | 463 kts | 318° |
| 2026-04-11 00:43 | 43.11953 | 68.58810 | 24099 ft | 464 kts | 318° |
| 2026-04-11 00:43 | 43.14363 | 68.55863 | 24469 ft | 465 kts | 318° |
| 2026-04-11 00:43 | 43.16779 | 68.52906 | 24800 ft | 466 kts | 318° |
| 2026-04-11 00:44 | 43.19198 | 68.49942 | 25124 ft | 468 kts | 318° |
| 2026-04-11 00:44 | 43.21628 | 68.46962 | 25440 ft | 470 kts | 318° |
| 2026-04-11 00:44 | 43.24069 | 68.43964 | 25762 ft | 471 kts | 318° |
| 2026-04-11 00:44 | 43.26505 | 68.40969 | 26154 ft | 470 kts | 318° |
| 2026-04-11 00:45 | 43.28938 | 68.37970 | 26569 ft | 469 kts | 317° |
| 2026-04-11 00:45 | 43.31058 | 68.34579 | 26953 ft | 469 kts | 306° |
| 2026-04-11 00:45 | 43.32988 | 68.30979 | 27348 ft | 468 kts | 307° |
| 2026-04-11 00:45 | 43.34917 | 68.27384 | 27729 ft | 467 kts | 307° |
| 2026-04-11 00:46 | 43.36833 | 68.23777 | 28147 ft | 466 kts | 307° |
| 2026-04-11 00:46 | 43.38735 | 68.20184 | 28574 ft | 465 kts | 307° |
| 2026-04-11 00:46 | 43.40636 | 68.16587 | 28966 ft | 464 kts | 307° |
| 2026-04-11 00:46 | 43.42506 | 68.13041 | 29346 ft | 463 kts | 307° |
| 2026-04-11 00:47 | 43.44398 | 68.09450 | 29738 ft | 462 kts | 307° |
| 2026-04-11 00:47 | 43.46285 | 68.05865 | 30140 ft | 461 kts | 307° |
| 2026-04-11 00:47 | 43.48162 | 68.02293 | 30472 ft | 460 kts | 307° |
| 2026-04-11 00:47 | 43.50035 | 67.98725 | 30785 ft | 459 kts | 307° |
| 2026-04-11 00:48 | 43.51907 | 67.95156 | 31082 ft | 458 kts | 307° |
| 2026-04-11 00:48 | 43.53750 | 67.91639 | 31387 ft | 458 kts | 307° |
| 2026-04-11 00:48 | 43.55608 | 67.88091 | 31691 ft | 457 kts | 307° |
| 2026-04-11 00:48 | 43.57468 | 67.84534 | 31987 ft | 456 kts | 306° |
| 2026-04-11 00:49 | 43.59321 | 67.80988 | 32290 ft | 455 kts | 306° |
| 2026-04-11 00:49 | 43.61171 | 67.77444 | 32591 ft | 454 kts | 306° |
| 2026-04-11 00:49 | 43.63016 | 67.73903 | 32887 ft | 453 kts | 306° |
| 2026-04-11 00:49 | 43.64851 | 67.70380 | 33201 ft | 452 kts | 306° |
| 2026-04-11 00:50 | 43.66682 | 67.66857 | 33481 ft | 451 kts | 306° |
| 2026-04-11 00:50 | 43.68512 | 67.63334 | 33767 ft | 451 kts | 306° |
| 2026-04-11 00:50 | 43.70338 | 67.59814 | 34028 ft | 450 kts | 306° |
| 2026-04-11 00:50 | 43.72138 | 67.56340 | 34172 ft | 450 kts | 306° |
| 2026-04-11 00:51 | 43.73953 | 67.52834 | 34167 ft | 448 kts | 306° |
| 2026-04-11 00:51 | 43.77578 | 67.45811 | 34175 ft | 447 kts | 306° |
| 2026-04-11 00:52 | 43.81191 | 67.38797 | 34176 ft | 447 kts | 306° |
| 2026-04-11 00:52 | 43.84799 | 67.31774 | 34174 ft | 448 kts | 306° |
| 2026-04-11 00:53 | 43.88415 | 67.24718 | 34171 ft | 448 kts | 306° |
| 2026-04-11 00:53 | 43.92018 | 67.17673 | 34177 ft | 448 kts | 306° |
| 2026-04-11 00:54 | 43.95615 | 67.10619 | 34177 ft | 448 kts | 306° |
| 2026-04-11 00:54 | 43.99185 | 67.03604 | 34175 ft | 448 kts | 306° |
| 2026-04-11 00:55 | 44.02780 | 66.96521 | 34177 ft | 448 kts | 305° |
| 2026-04-11 00:55 | 44.06366 | 66.89439 | 34178 ft | 448 kts | 305° |
| 2026-04-11 00:56 | 44.09953 | 66.82341 | 34181 ft | 448 kts | 305° |
| 2026-04-11 00:56 | 44.13526 | 66.75249 | 34185 ft | 448 kts | 305° |
| 2026-04-11 00:57 | 44.17097 | 66.68144 | 34181 ft | 447 kts | 305° |
| 2026-04-11 00:57 | 44.20663 | 66.61033 | 34186 ft | 447 kts | 305° |
| 2026-04-11 00:58 | 44.24224 | 66.53916 | 34189 ft | 447 kts | 305° |
| 2026-04-11 00:58 | 44.27780 | 66.46793 | 34185 ft | 447 kts | 305° |
| 2026-04-11 00:59 | 44.31211 | 66.39626 | 34196 ft | 447 kts | 303° |
| 2026-04-11 00:59 | 44.34600 | 66.32346 | 34194 ft | 447 kts | 303° |
| 2026-04-11 01:00 | 44.37989 | 66.25069 | 34199 ft | 447 kts | 303° |
| 2026-04-11 01:00 | 44.41376 | 66.17783 | 34203 ft | 446 kts | 303° |
| 2026-04-11 01:01 | 44.44759 | 66.10486 | 34203 ft | 446 kts | 303° |
| 2026-04-11 01:01 | 44.48134 | 66.03189 | 34201 ft | 446 kts | 302° |
| 2026-04-11 01:02 | 44.51507 | 65.95875 | 34210 ft | 446 kts | 302° |
| 2026-04-11 01:02 | 44.54871 | 65.88563 | 34218 ft | 446 kts | 302° |
| 2026-04-11 01:03 | 44.58210 | 65.81288 | 34211 ft | 446 kts | 302° |
| 2026-04-11 01:03 | 44.61566 | 65.73957 | 34212 ft | 446 kts | 302° |
| 2026-04-11 01:04 | 44.64917 | 65.66617 | 34214 ft | 446 kts | 302° |
| 2026-04-11 01:04 | 44.68262 | 65.59276 | 34208 ft | 446 kts | 302° |
| 2026-04-11 01:05 | 44.71281 | 65.51680 | 34217 ft | 445 kts | 297° |
| 2026-04-11 01:05 | 44.74192 | 65.43988 | 34210 ft | 445 kts | 297° |
| 2026-04-11 01:06 | 44.76625 | 65.37605 | 34214 ft | 445 kts | 297° |
| 2026-04-11 01:06 | 44.79547 | 65.29929 | 34216 ft | 445 kts | 297° |
| 2026-04-11 01:07 | 44.82468 | 65.22235 | 34215 ft | 445 kts | 297° |
| 2026-04-11 01:07 | 44.85376 | 65.14553 | 34222 ft | 444 kts | 297° |
| 2026-04-11 01:08 | 44.88283 | 65.06852 | 34221 ft | 444 kts | 297° |
| 2026-04-11 01:08 | 44.91181 | 64.99158 | 34221 ft | 444 kts | 297° |
| 2026-04-11 01:09 | 44.95163 | 64.87432 | 34220 ft | 444 kts | 295° |
| 2026-04-11 01:09 | 44.97826 | 64.79565 | 34226 ft | 444 kts | 295° |
| 2026-04-11 01:10 | 45.00485 | 64.71691 | 34230 ft | 444 kts | 294° |
| 2026-04-11 01:10 | 45.03123 | 64.63818 | 34233 ft | 443 kts | 294° |
| 2026-04-11 01:11 | 45.05754 | 64.55931 | 34228 ft | 443 kts | 294° |
| 2026-04-11 01:11 | 45.08380 | 64.48039 | 34231 ft | 443 kts | 294° |
| 2026-04-11 01:12 | 45.10997 | 64.40150 | 34240 ft | 443 kts | 294° |
| 2026-04-11 01:12 | 45.13614 | 64.32235 | 34231 ft | 443 kts | 294° |
| 2026-04-11 01:13 | 45.16220 | 64.24333 | 34231 ft | 442 kts | 294° |
| 2026-04-11 01:13 | 45.18800 | 64.16484 | 34233 ft | 442 kts | 294° |
| 2026-04-11 01:14 | 45.21391 | 64.08579 | 34238 ft | 442 kts | 294° |
| 2026-04-11 01:14 | 45.23980 | 64.00655 | 34239 ft | 442 kts | 294° |
| 2026-04-11 01:15 | 45.26559 | 63.92736 | 34237 ft | 442 kts | 293° |
| 2026-04-11 01:15 | 45.29132 | 63.84815 | 34241 ft | 442 kts | 293° |
| 2026-04-11 01:16 | 45.31700 | 63.76886 | 34242 ft | 441 kts | 293° |
| 2026-04-11 01:16 | 45.34242 | 63.69013 | 34243 ft | 441 kts | 293° |
| 2026-04-11 01:17 | 45.36795 | 63.61079 | 34243 ft | 441 kts | 293° |
| 2026-04-11 01:17 | 45.39341 | 63.53142 | 34243 ft | 441 kts | 292° |
| 2026-04-11 01:18 | 45.41881 | 63.45203 | 34240 ft | 440 kts | 292° |
| 2026-04-11 01:18 | 45.44415 | 63.37255 | 34244 ft | 440 kts | 292° |
| 2026-04-11 01:19 | 45.46943 | 63.29305 | 34245 ft | 440 kts | 292° |
| 2026-04-11 01:19 | 45.49463 | 63.21354 | 34244 ft | 440 kts | 292° |
| 2026-04-11 01:20 | 45.51960 | 63.13451 | 34248 ft | 440 kts | 292° |
| 2026-04-11 01:20 | 45.54464 | 63.05500 | 34246 ft | 439 kts | 292° |
| 2026-04-11 01:21 | 45.56965 | 62.97535 | 34245 ft | 439 kts | 291° |
| 2026-04-11 01:21 | 45.59461 | 62.89564 | 34243 ft | 439 kts | 291° |
| 2026-04-11 01:22 | 45.61947 | 62.81598 | 34246 ft | 439 kts | 291° |
| 2026-04-11 01:22 | 45.64428 | 62.73622 | 34244 ft | 439 kts | 291° |
| 2026-04-11 01:23 | 45.66903 | 62.65643 | 34243 ft | 439 kts | 291° |
| 2026-04-11 01:23 | 45.69371 | 62.57658 | 34245 ft | 439 kts | 291° |
| 2026-04-11 01:24 | 45.71818 | 62.49719 | 34240 ft | 439 kts | 291° |
| 2026-04-11 01:24 | 45.74276 | 62.41718 | 34239 ft | 439 kts | 291° |
| 2026-04-11 01:25 | 45.76730 | 62.33711 | 34239 ft | 439 kts | 291° |
| 2026-04-11 01:25 | 45.79182 | 62.25690 | 34239 ft | 439 kts | 291° |
| 2026-04-11 01:26 | 45.81622 | 62.17679 | 34237 ft | 439 kts | 290° |
| 2026-04-11 01:26 | 45.84925 | 62.10326 | 34249 ft | 447 kts | 311° |
| 2026-04-11 01:27 | 45.89253 | 62.03902 | 34239 ft | 448 kts | 310° |
| 2026-04-11 01:27 | 45.93561 | 61.97509 | 34238 ft | 448 kts | 310° |
| 2026-04-11 01:28 | 45.97900 | 61.91068 | 34230 ft | 448 kts | 310° |
| 2026-04-11 01:28 | 46.02232 | 61.84622 | 34237 ft | 448 kts | 310° |
| 2026-04-11 01:29 | 46.06559 | 61.78168 | 34236 ft | 448 kts | 310° |
| 2026-04-11 01:29 | 46.10859 | 61.71741 | 34233 ft | 448 kts | 310° |
| 2026-04-11 01:30 | 46.15180 | 61.65269 | 34233 ft | 448 kts | 310° |
| 2026-04-11 01:30 | 46.19507 | 61.58782 | 34233 ft | 448 kts | 310° |
| 2026-04-11 01:31 | 46.23826 | 61.52292 | 34232 ft | 448 kts | 310° |
| 2026-04-11 01:31 | 46.28114 | 61.45834 | 34229 ft | 448 kts | 310° |
| 2026-04-11 01:32 | 46.32432 | 61.39315 | 34229 ft | 448 kts | 309° |
| 2026-04-11 01:32 | 46.36737 | 61.32799 | 34230 ft | 448 kts | 309° |
| 2026-04-11 01:33 | 46.41051 | 61.26253 | 34227 ft | 448 kts | 309° |
| 2026-04-11 01:33 | 46.45329 | 61.19747 | 34226 ft | 448 kts | 309° |
| 2026-04-11 01:34 | 46.49628 | 61.13193 | 34230 ft | 448 kts | 309° |
| 2026-04-11 01:34 | 46.53920 | 61.06632 | 34229 ft | 448 kts | 309° |
| 2026-04-11 01:35 | 46.58212 | 61.00055 | 34227 ft | 448 kts | 309° |
| 2026-04-11 01:35 | 46.62494 | 60.93479 | 34223 ft | 448 kts | 309° |
| 2026-04-11 01:36 | 46.66781 | 60.86877 | 34231 ft | 448 kts | 309° |
| 2026-04-11 01:36 | 46.71059 | 60.80274 | 34236 ft | 448 kts | 309° |
| 2026-04-11 01:37 | 46.75339 | 60.73652 | 34229 ft | 448 kts | 309° |
| 2026-04-11 01:37 | 46.79585 | 60.67067 | 34230 ft | 448 kts | 309° |
| 2026-04-11 01:38 | 46.83861 | 60.60417 | 34238 ft | 448 kts | 309° |
| 2026-04-11 01:38 | 46.88129 | 60.53764 | 34236 ft | 448 kts | 309° |
| 2026-04-11 01:39 | 46.92392 | 60.47101 | 34233 ft | 448 kts | 309° |
| 2026-04-11 01:39 | 46.96646 | 60.40435 | 34235 ft | 448 kts | 309° |
| 2026-04-11 01:40 | 47.00876 | 60.33792 | 34237 ft | 448 kts | 309° |
| 2026-04-11 01:40 | 47.05126 | 60.27100 | 34238 ft | 448 kts | 309° |
| 2026-04-11 01:41 | 47.09377 | 60.20391 | 34245 ft | 448 kts | 308° |
| 2026-04-11 01:41 | 47.13617 | 60.13679 | 34244 ft | 448 kts | 308° |
| 2026-04-11 01:42 | 47.17848 | 60.06966 | 34240 ft | 448 kts | 308° |
| 2026-04-11 01:42 | 47.22057 | 60.00272 | 34243 ft | 447 kts | 308° |
| 2026-04-11 01:43 | 47.26284 | 59.93532 | 34237 ft | 447 kts | 308° |
| 2026-04-11 01:43 | 47.30498 | 59.86796 | 34238 ft | 447 kts | 308° |
| 2026-04-11 01:44 | 47.34711 | 59.80044 | 34239 ft | 447 kts | 308° |
| 2026-04-11 01:44 | 47.38896 | 59.73320 | 34241 ft | 447 kts | 308° |
| 2026-04-11 01:45 | 47.43103 | 59.66543 | 34237 ft | 447 kts | 308° |
| 2026-04-11 01:45 | 47.47307 | 59.59754 | 34237 ft | 447 kts | 308° |
| 2026-04-11 01:46 | 47.51510 | 59.52951 | 34239 ft | 448 kts | 308° |
| 2026-04-11 01:46 | 47.55706 | 59.46140 | 34241 ft | 448 kts | 308° |
| 2026-04-11 01:47 | 47.59898 | 59.39322 | 34243 ft | 448 kts | 308° |
| 2026-04-11 01:47 | 47.64091 | 59.32485 | 34246 ft | 448 kts | 308° |
| 2026-04-11 01:48 | 47.68249 | 59.25690 | 34250 ft | 448 kts | 308° |
| 2026-04-11 01:48 | 47.72434 | 59.18815 | 34254 ft | 448 kts | 307° |
| 2026-04-11 01:49 | 47.76607 | 59.11942 | 34259 ft | 448 kts | 307° |
| 2026-04-11 01:49 | 47.80778 | 59.05060 | 34259 ft | 448 kts | 307° |
| 2026-04-11 01:50 | 47.84948 | 58.98163 | 34264 ft | 447 kts | 307° |
| 2026-04-11 01:50 | 47.89112 | 58.91258 | 34273 ft | 447 kts | 307° |
| 2026-04-11 01:51 | 47.93238 | 58.84397 | 34274 ft | 447 kts | 307° |
| 2026-04-11 01:51 | 47.97381 | 58.77491 | 34273 ft | 446 kts | 307° |
| 2026-04-11 01:52 | 48.01521 | 58.70573 | 34285 ft | 446 kts | 307° |
| 2026-04-11 01:52 | 48.05648 | 58.63657 | 34282 ft | 446 kts | 307° |
| 2026-04-11 01:53 | 48.09767 | 58.56735 | 34283 ft | 445 kts | 307° |
| 2026-04-11 01:53 | 48.13877 | 58.49812 | 34283 ft | 444 kts | 307° |
| 2026-04-11 01:54 | 48.17285 | 58.44058 | 34277 ft | 444 kts | 307° |
| 2026-04-11 01:54 | 48.22047 | 58.35996 | 34275 ft | 444 kts | 307° |
| 2026-04-11 01:55 | 48.25444 | 58.30230 | 34277 ft | 443 kts | 307° |
| 2026-04-11 01:55 | 48.29527 | 58.23283 | 34282 ft | 443 kts | 307° |
| 2026-04-11 01:56 | 48.33605 | 58.16326 | 34284 ft | 443 kts | 307° |
| 2026-04-11 01:56 | 48.37680 | 58.09356 | 34282 ft | 443 kts | 307° |
| 2026-04-11 01:57 | 48.41749 | 58.02379 | 34273 ft | 443 kts | 307° |
| 2026-04-11 01:57 | 48.45820 | 57.95379 | 34279 ft | 443 kts | 306° |
| 2026-04-11 01:58 | 48.49856 | 57.88421 | 34280 ft | 443 kts | 306° |
| 2026-04-11 01:58 | 48.53917 | 57.81401 | 34278 ft | 443 kts | 306° |
| 2026-04-11 01:59 | 48.57957 | 57.74398 | 34275 ft | 444 kts | 306° |
| 2026-04-11 01:59 | 48.62005 | 57.67364 | 34280 ft | 444 kts | 306° |
| 2026-04-11 02:00 | 48.66053 | 57.60313 | 34270 ft | 444 kts | 306° |
| 2026-04-11 02:00 | 48.70097 | 57.53253 | 34275 ft | 444 kts | 306° |
| 2026-04-11 02:01 | 48.74137 | 57.46176 | 34280 ft | 444 kts | 306° |
| 2026-04-11 02:01 | 48.78181 | 57.39076 | 34268 ft | 445 kts | 306° |
| 2026-04-11 02:02 | 48.82222 | 57.31966 | 34269 ft | 445 kts | 305° |
| 2026-04-11 02:02 | 48.86260 | 57.24842 | 34266 ft | 445 kts | 305° |
| 2026-04-11 02:03 | 48.90298 | 57.17699 | 34266 ft | 446 kts | 305° |
| 2026-04-11 02:03 | 48.94340 | 57.10531 | 34268 ft | 446 kts | 305° |
| 2026-04-11 02:04 | 48.98382 | 57.03342 | 34271 ft | 447 kts | 304° |
| 2026-04-11 02:04 | 49.02405 | 56.96167 | 34269 ft | 448 kts | 304° |
| 2026-04-11 02:05 | 49.06457 | 56.88923 | 34264 ft | 449 kts | 304° |
| 2026-04-11 02:05 | 49.10515 | 56.81645 | 34266 ft | 450 kts | 304° |
| 2026-04-11 02:06 | 49.14565 | 56.74364 | 34262 ft | 450 kts | 304° |
| 2026-04-11 02:06 | 49.18606 | 56.67077 | 34261 ft | 449 kts | 304° |
| 2026-04-11 02:07 | 49.22622 | 56.59815 | 34260 ft | 449 kts | 304° |
| 2026-04-11 02:07 | 49.26657 | 56.52500 | 34258 ft | 449 kts | 304° |
| 2026-04-11 02:08 | 49.30657 | 56.45228 | 34253 ft | 448 kts | 304° |
| 2026-04-11 02:08 | 49.34673 | 56.37905 | 34252 ft | 447 kts | 303° |
| 2026-04-11 02:09 | 49.38674 | 56.30592 | 34258 ft | 447 kts | 304° |
| 2026-04-11 02:09 | 49.42658 | 56.23288 | 34264 ft | 446 kts | 303° |
| 2026-04-11 02:10 | 49.46606 | 56.16030 | 34259 ft | 445 kts | 303° |
| 2026-04-11 02:10 | 49.50570 | 56.08721 | 34260 ft | 445 kts | 303° |
| 2026-04-11 02:11 | 49.54527 | 56.01407 | 34258 ft | 445 kts | 303° |
| 2026-04-11 02:11 | 49.58484 | 55.94071 | 34261 ft | 445 kts | 303° |
| 2026-04-11 02:12 | 49.62430 | 55.86734 | 34264 ft | 444 kts | 303° |
| 2026-04-11 02:12 | 49.66374 | 55.79382 | 34258 ft | 445 kts | 303° |
| 2026-04-11 02:13 | 49.70314 | 55.72017 | 34262 ft | 445 kts | 303° |
| 2026-04-11 02:13 | 49.74257 | 55.64625 | 34262 ft | 445 kts | 303° |
| 2026-04-11 02:14 | 49.78168 | 55.57273 | 34265 ft | 446 kts | 303° |
| 2026-04-11 02:14 | 49.82106 | 55.49848 | 34265 ft | 446 kts | 302° |
| 2026-04-11 02:15 | 49.86041 | 55.42408 | 34266 ft | 446 kts | 302° |
| 2026-04-11 02:15 | 49.89970 | 55.34959 | 34267 ft | 446 kts | 302° |
| 2026-04-11 02:16 | 49.93895 | 55.27497 | 34268 ft | 446 kts | 302° |
| 2026-04-11 02:16 | 49.97815 | 55.20021 | 34270 ft | 446 kts | 302° |
| 2026-04-11 02:17 | 50.01730 | 55.12534 | 34272 ft | 446 kts | 302° |
| 2026-04-11 02:17 | 50.05643 | 55.05031 | 34277 ft | 446 kts | 302° |
| 2026-04-11 02:18 | 50.09553 | 54.97511 | 34275 ft | 446 kts | 302° |
| 2026-04-11 02:18 | 50.13437 | 54.90019 | 34278 ft | 446 kts | 302° |
| 2026-04-11 02:19 | 50.17336 | 54.82479 | 34279 ft | 446 kts | 302° |
| 2026-04-11 02:19 | 50.21234 | 54.74924 | 34271 ft | 446 kts | 302° |
| 2026-04-11 02:20 | 50.25119 | 54.67372 | 34268 ft | 445 kts | 302° |
| 2026-04-11 02:20 | 50.28970 | 54.59865 | 34277 ft | 445 kts | 302° |
| 2026-04-11 02:21 | 50.32932 | 54.52397 | 34284 ft | 445 kts | 303° |
| 2026-04-11 02:21 | 50.36915 | 54.44981 | 34279 ft | 445 kts | 303° |
| 2026-04-11 02:22 | 50.42877 | 54.33832 | 34282 ft | 444 kts | 303° |
| 2026-04-11 02:23 | 50.46807 | 54.26456 | 34280 ft | 443 kts | 303° |
| 2026-04-11 02:23 | 50.50759 | 54.19018 | 34277 ft | 443 kts | 303° |
| 2026-04-11 02:24 | 50.54700 | 54.11578 | 34285 ft | 442 kts | 303° |
| 2026-04-11 02:24 | 50.58636 | 54.04126 | 34282 ft | 442 kts | 302° |
| 2026-04-11 02:25 | 50.62566 | 53.96665 | 34286 ft | 442 kts | 302° |
| 2026-04-11 02:25 | 50.66488 | 53.89199 | 34293 ft | 443 kts | 302° |
| 2026-04-11 02:26 | 50.70389 | 53.81749 | 34286 ft | 443 kts | 302° |
| 2026-04-11 02:26 | 50.74310 | 53.74240 | 34294 ft | 443 kts | 302° |
| 2026-04-11 02:27 | 50.78228 | 53.66714 | 34295 ft | 443 kts | 302° |
| 2026-04-11 02:27 | 50.80188 | 53.62942 | 34292 ft | 443 kts | 302° |